Nearby METAR Reports

 

YSRI - Richmond (aus-Af, Australia
Distance from station: WSW 35km
Updated: 16/07/2024 07:00
Mostly cloudy
Mostly cloudy
 Wind from WNW
Wind: WNW 19 km/h
Temperature: 11°C
Dew Point: 3°C
Humidity: 58%
Barometer: 1001 hPa
Clouds: Mostly cloudy
Visibility: 10 km
Cloud details: Mostly cloudy 1737 m
2024/07/15 21:00 YSRI 152100Z AUTO 30010KT 9999 // BKN057 11/03 Q1001 RF00.0/000.0
YSSY - Sydney Intl Airp, Australia
Distance from station: S 47km
Updated: 16/07/2024 07:00
Mostly cloudy
Mostly cloudy
 Wind from NNW
Wind: NNW 22 km/h
Temperature: 11°C
Dew Point: 1°C
Humidity: 50%
Barometer: 1000 hPa
Clouds: Mostly cloudy
Visibility: 10 km
Cloud details: Few Clouds 1219 m
Partly cloudy 1829 m
Mostly cloudy 3353 m
2024/07/15 21:00 YSSY 152100Z 33012KT 9999 FEW040 SCT060 BKN110 11/01 Q1000 RF00.0/000.0 DIST SHRA TO SE
 
YWLM - Williamtown Arp, Australia
Distance from station: NE 104km
Updated: 16/07/2024 06:45
Clear
Clear
 Wind from WNW
Wind: WNW 37 km/h, Gust: 56 km/h
Temperature: 10°C
Wind Chill: 6°C
Dew Point: 2°C
Humidity: 58%
Barometer: 1003 hPa
Clouds: Clear
Visibility: 10 km
2024/07/15 20:45 YWLM 152045Z AUTO 30020G30KT 9999 // NCD 10/02 Q1003 RF00.0/000.0
YSNW - Nowra (aus-Navy), Australia
Distance from station: SSW 168km
Updated: 16/11/2022 13:33
NOT Current
Light rain, Showers, Mostly cloudy
Light rain, Showers, Mostly cloudy
 Wind from S
Wind: S 28 km/h, Gust: 50 km/h
Temperature: 10°C
Wind Chill: 7°C
Dew Point: 8°C
Humidity: 88%
Barometer: 1010 hPa
Summary: Light rain, Showers
Clouds: Mostly cloudy
Visibility: 10 km
Cloud details: Partly cloudy 610 m
Mostly cloudy 1463 m
Mostly cloudy 1768 m
2022/11/16 02:33 YSNW 160233Z AUTO 17015G27KT 9999 -SHRA SCT020 BKN048 BKN058 10/08 Q1010
 
YMDG - Mudgee Arpt, Australia
Distance from station: NW 177km
Updated: 16/11/2022 13:34
NOT Current
Overcast
Overcast
 Wind from SW
Wind: SW 31 km/h, Gust: 50 km/h
Temperature: 14°C
Dew Point: 4°C
Humidity: 51%
Barometer: 1011 hPa
Clouds: Overcast
Visibility: 10 km
Cloud details: Partly cloudy 1615 m
Mostly cloudy 2012 m
Overcast 2469 m
2022/11/16 02:34 YMDG 160234Z AUTO 23017G27KT 9999 // SCT053 BKN066 OVC081 14/04 Q1011
YTRE - Taree Airport, Australia
Distance from station: NE 224km
Updated: 14/11/2022 20:56
NOT Current
Clear
Clear
 Wind from S
Wind: S 9 km/h
Temperature: 20°C
Dew Point: 20°C
Humidity: 100%
Barometer: 1005 hPa
Clouds: Clear
Visibility: 10 km
2022/11/14 09:56 YTRE 140956Z AUTO 18005KT 130V260 9999 // NCD 20/20 Q1005
 
YSCB - Canberra (civ/Mi, Australia
Distance from station: SW 265km
Updated: 16/07/2024 07:00
Overcast
Overcast
 Wind from NNW
Wind: NNW 24 km/h
Temperature: 5°C
Wind Chill: 1°C
Dew Point: 2°C
Humidity: 81%
Barometer: 1000 hPa
Clouds: Overcast
Visibility: 10 km
Cloud details: Mostly cloudy 914 m
Overcast 2012 m
2024/07/15 21:00 YSCB 152100Z AUTO 34013KT 9999 // BKN030 OVC066 05/02 Q1000
YSTW - Tamworth Airport, Australia
Distance from station: N 275km
Updated: 16/07/2024 07:00
Few Clouds
Few Clouds
 Wind from NW
Wind: NW 19 km/h
Temperature: 4°C
Wind Chill: 0°C
Dew Point: 3°C
Humidity: 93%
Barometer: 1009 hPa
Clouds: Few Clouds
Visibility: 10 km
Cloud details: Few Clouds 1372 m
2024/07/15 21:00 YSTW 152100Z AUTO 32010KT 9999 // FEW045 04/03 Q1009 RF00.0/000.0
 
YSDU - Dubbo, Australia
Distance from station: WNW 280km
Updated: 16/07/2024 07:00
Overcast
Overcast
 Wind from WNW
Wind: WNW 17 km/h
Temperature: 4°C
Wind Chill: 0°C
Dew Point: 4°C
Humidity: 100%
Barometer: 1008 hPa
Clouds: Overcast
Visibility: 10 km
Cloud details: Overcast 152 m
2024/07/15 21:00 YSDU 152100Z AUTO 30009KT 9999 // OVC005 04/04 Q1008 RF00.0/004.0
YPMQ - Port Macquarie, Australia
Distance from station: NE 284km
Updated: 14/11/2022 15:00
NOT Current
Partly cloudy
Partly cloudy
 Wind from WNW
Wind: WNW 31 km/h, Gust: 54 km/h
Temperature: 31°C
Heat Index: 31°C
Dew Point: 16°C
Humidity: 40%
Barometer: 1001 hPa
Clouds: Partly cloudy
Visibility: 10 km
Cloud details: Partly cloudy 2377 m
2022/11/14 04:00 YPMQ 140400Z AUTO 29017G29KT 9999 // SCT078 31/16 Q1001
 
YCBB - Coonabarabran, Australia
Distance from station: NW 300km
Updated: 16/11/2022 12:30
NOT Current
Overcast
Overcast
 Wind from SW
Wind: SW 28 km/h, Gust: 48 km/h
Temperature: 13°C
Dew Point: 1°C
Humidity: 44%
Barometer: 1012 hPa
Clouds: Overcast
Visibility: 10 km
Cloud details: Overcast 1676 m
2022/11/16 01:30 YCBB 160130Z AUTO 23015G26KT 9999 // OVC055 13/01 Q1012